Time;durP1;ratioP1;P1;durP2;ratioP2;P2;SDS_P1;SDS_P2;PMS_P1;PMS_P2;Temp;Humidity;BMP_temperature;BMP_pressure;BME280_temperature;BME280_humidity;BME280_pressure;Samples;Min_cycle;Max_cycle;Signal;HPM_P1;HPM_P2
2023/09/26 00:02:25;;;;;;;5.70;5.20;;;;;;;16.43;60.02;99346.59;6858206;28;20246;-85
2023/09/26 00:05:47;;;;;;;5.83;5.27;;;;;;;16.52;59.49;99348.75;6858694;28;20282;-85
2023/09/26 00:09:10;;;;;;;5.03;4.53;;;;;;;15.97;60.51;99305.47;6860230;28;20620;-85
2023/09/26 00:12:32;;;;;;;5.43;4.93;;;;;;;16.19;60.19;99355.66;6859665;28;20607;-85
2023/09/26 00:15:55;;;;;;;5.27;4.80;;;;;;;16.15;60.76;99366.16;6860389;28;20221;-85
2023/09/26 00:19:17;;;;;;;5.83;5.33;;;;;;;16.02;61.25;99351.88;6860431;28;20325;-85
2023/09/26 00:22:39;;;;;;;6.17;5.03;;;;;;;16.26;61.03;99353.66;6859752;28;20274;-85
2023/09/26 00:26:00;;;;;;;9.97;5.40;;;;;;;15.93;61.57;99354.06;6860627;28;20253;-85
2023/09/26 00:29:22;;;;;;;5.47;5.03;;;;;;;16.19;61.80;99352.94;6859962;28;20201;-85
2023/09/26 00:32:44;;;;;;;5.13;4.73;;;;;;;16.24;61.31;99348.47;6859663;28;20243;-85
2023/09/26 00:36:07;;;;;;;5.40;4.67;;;;;;;16.41;59.58;99338.66;6860395;28;20297;-85
2023/09/26 00:39:30;;;;;;;6.40;5.00;;;;;;;16.07;59.65;99342.00;6859841;28;20270;-85
2023/09/26 00:42:51;;;;;;;5.67;5.20;;;;;;;15.84;61.12;99357.31;6863282;28;20274;-85
2023/09/26 00:46:13;;;;;;;5.27;4.77;;;;;;;16.20;60.12;99335.53;6865318;28;20708;-85
2023/09/26 00:49:36;;;;;;;4.80;4.40;;;;;;;16.23;58.99;99335.91;6865582;28;20211;-85
2023/09/26 00:52:58;;;;;;;5.90;5.03;;;;;;;16.20;59.36;99340.97;6864013;28;20226;-85
2023/09/26 00:56:19;;;;;;;5.00;4.60;;;;;;;16.25;59.64;99339.25;6865156;28;20241;-85
2023/09/26 00:59:41;;;;;;;5.20;4.70;;;;;;;16.04;58.99;99293.47;6864953;28;20296;-85
2023/09/26 01:03:03;;;;;;;7.17;4.60;;;;;;;16.28;58.98;99336.06;6864001;28;20360;-85
2023/09/26 01:06:26;;;;;;;6.13;5.00;;;;;;;16.38;58.44;99338.25;6864043;28;20232;-85
2023/09/26 01:09:47;;;;;;;5.47;4.90;;;;;;;16.09;59.15;99336.28;6864625;28;20242;-85
2023/09/26 01:13:09;;;;;;;5.47;4.97;;;;;;;15.71;59.94;99331.09;6863988;28;20769;-85
2023/09/26 01:16:31;;;;;;;5.73;4.90;;;;;;;15.70;60.19;99340.28;6864716;28;20759;-84
2023/09/26 01:19:52;;;;;;;5.33;4.83;;;;;;;15.66;60.48;99347.25;6864227;28;20252;-83
2023/09/26 01:23:16;;;;;;;6.10;5.50;;;;;;;15.40;61.08;99343.94;6864146;28;20322;-85
2023/09/26 01:26:39;;;;;;;5.90;5.30;;;;;;;15.48;60.87;99346.38;6864667;28;20298;-85
2023/09/26 01:30:00;;;;;;;5.70;5.20;;;;;;;16.07;59.76;99341.16;6864228;28;20340;-85
2023/09/26 01:33:22;;;;;;;6.97;5.23;;;;;;;16.07;59.18;99333.84;6872624;28;20320;-85
2023/09/26 01:36:43;;;;;;;5.67;5.17;;;;;;;15.87;60.07;99330.47;6867916;28;20290;-85
2023/09/26 01:40:15;;;;;;;5.20;4.70;;;;;;;15.99;60.00;99322.41;6865010;28;20214;-83
2023/09/26 01:43:38;;;;;;;5.40;4.90;;;;;;;16.00;58.95;99314.03;6863248;28;20269;-85
2023/09/26 01:47:00;;;;;;;5.70;5.10;;;;;;;15.86;59.21;99347.88;6864227;28;20700;-85
2023/09/26 01:50:22;;;;;;;5.67;5.17;;;;;;;15.51;60.54;99335.06;6862450;28;20354;-85
2023/09/26 01:53:43;;;;;;;5.73;5.27;;;;;;;15.47;60.75;99344.72;6862199;28;20692;-84
2023/09/26 01:57:07;;;;;;;5.73;5.23;;;;;;;15.39;61.42;99347.72;6864229;28;20905;-85
2023/09/26 02:00:30;;;;;;;5.50;5.00;;;;;;;15.59;60.18;99330.19;6868265;28;20296;-85
2023/09/26 02:03:51;;;;;;;7.70;4.67;;;;;;;15.77;59.17;99348.38;6875825;28;20681;-83
2023/09/26 02:07:13;;;;;;;7.10;5.80;;;;;;;15.21;60.04;99298.75;6878613;28;20245;-85
2023/09/26 02:10:34;;;;;;;5.80;5.30;;;;;;;15.24;60.18;99317.31;6874169;28;20634;-85
2023/09/26 02:13:56;;;;;;;5.53;5.13;;;;;;;14.96;60.05;99331.31;6876755;28;20323;-85
2023/09/26 02:17:19;;;;;;;5.57;5.10;;;;;;;15.17;60.25;99328.22;6874305;28;20226;-85
2023/09/26 02:20:41;;;;;;;5.57;5.07;;;;;;;15.27;60.13;99311.44;6878821;28;20317;-85
2023/09/26 02:24:02;;;;;;;6.83;5.40;;;;;;;15.18;60.47;99329.06;6877077;28;20336;-85
2023/09/26 02:27:24;;;;;;;5.70;5.30;;;;;;;14.91;60.86;99309.41;6873148;28;20368;-85
2023/09/26 02:30:45;;;;;;;5.73;5.23;;;;;;;14.86;61.55;99335.59;6878063;28;20701;-85
2023/09/26 02:34:08;;;;;;;6.80;5.70;;;;;;;14.77;62.10;99307.03;6876689;28;20324;-85
2023/09/26 02:37:30;;;;;;;6.27;5.67;;;;;;;14.71;61.84;99288.91;6873640;28;20618;-85
2023/09/26 02:40:51;;;;;;;5.73;5.27;;;;;;;15.12;61.76;99328.06;6868253;28;20305;-85
2023/09/26 02:44:13;;;;;;;6.57;5.37;;;;;;;15.40;61.09;99316.78;6870292;28;20265;-85
2023/09/26 02:47:34;;;;;;;5.90;5.37;;;;;;;15.16;60.28;99304.00;6871048;28;20301;-84
2023/09/26 02:51:04;;;;;;;13.50;5.40;;;;;;;15.25;60.89;99308.09;6874877;28;20349;-85
2023/09/26 02:54:27;;;;;;;5.57;5.00;;;;;;;15.40;60.01;99316.78;6873204;28;20368;-85
2023/09/26 02:57:48;;;;;;;5.90;5.40;;;;;;;14.79;61.39;99313.06;6874773;28;20300;-83
2023/09/26 03:01:15;;;;;;;6.10;5.47;;;;;;;15.05;60.63;99304.72;6872674;28;20304;-85
2023/09/26 03:04:37;;;;;;;5.37;4.80;;;;;;;15.10;60.68;99307.63;6868552;28;20260;-83
2023/09/26 03:08:00;;;;;;;6.50;5.57;;;;;;;15.04;60.04;99331.03;6898197;28;20198;-84
2023/09/26 03:11:21;;;;;;;6.40;5.80;;;;;;;15.39;59.70;99326.81;6893925;28;20198;-84
2023/09/26 03:14:43;;;;;;;5.63;5.13;;;;;;;14.97;60.01;99332.13;6886024;28;20232;-84
2023/09/26 03:18:05;;;;;;;5.93;5.30;;;;;;;15.03;60.33;99317.66;6864849;28;20355;-85
2023/09/26 03:21:27;;;;;;;5.40;4.90;;;;;;;14.91;60.88;99317.56;6874382;28;20257;-84
2023/09/26 03:24:50;;;;;;;6.43;5.67;;;;;;;14.89;61.12;99318.84;6879986;28;20233;-86
2023/09/26 03:28:11;;;;;;;6.23;5.70;;;;;;;15.14;60.87;99315.09;6872490;28;20206;-85
2023/09/26 03:31:34;;;;;;;6.40;5.70;;;;;;;15.25;60.09;99314.38;6874118;28;20303;-85
2023/09/26 03:34:55;;;;;;;5.97;5.47;;;;;;;15.55;59.53;99306.38;6875052;28;20314;-85
2023/09/26 03:38:17;;;;;;;6.30;5.70;;;;;;;15.43;59.80;99324.47;6877397;28;20259;-86
2023/09/26 03:41:40;;;;;;;7.03;6.13;;;;;;;15.06;60.27;99292.81;6876301;28;20310;-85
2023/09/26 03:45:01;;;;;;;8.00;7.30;;;;;;;14.70;62.24;99303.53;6871514;28;20226;-85
2023/09/26 03:48:22;;;;;;;8.60;7.20;;;;;;;14.93;62.14;99276.63;6872025;28;20302;-86
2023/09/26 03:51:44;;;;;;;8.50;7.17;;;;;;;15.42;61.57;99317.38;6873823;28;20306;-85
2023/09/26 03:55:06;;;;;;;7.83;7.13;;;;;;;15.40;61.04;99312.16;6877786;28;20237;-84
2023/09/26 03:58:29;;;;;;;8.07;7.27;;;;;;;15.23;61.24;99292.00;6886572;28;20250;-83
2023/09/26 04:01:50;;;;;;;8.37;7.60;;;;;;;15.48;61.21;99303.72;6888860;28;20625;-85
2023/09/26 04:05:12;;;;;;;10.87;8.50;;;;;;;15.36;61.52;99308.25;6876669;28;20234;-85
2023/09/26 04:08:34;;;;;;;10.17;8.10;;;;;;;15.39;61.30;99298.81;6872535;28;20283;-86
2023/09/26 04:11:55;;;;;;;10.33;9.20;;;;;;;15.09;62.27;99305.91;6881994;28;20221;-86
2023/09/26 04:15:18;;;;;;;12.03;10.70;;;;;;;15.25;63.34;99297.22;6876377;28;20383;-85
2023/09/26 04:18:39;;;;;;;15.80;14.17;;;;;;;15.47;63.04;99261.31;6875902;28;20312;-86
2023/09/26 04:22:01;;;;;;;17.53;14.67;;;;;;;16.15;62.03;99287.25;6867993;28;20300;-85
2023/09/26 04:25:22;;;;;;;16.80;14.73;;;;;;;16.21;62.57;99277.38;6870524;28;20222;-85
2023/09/26 04:28:45;;;;;;;15.77;12.50;;;;;;;16.43;61.93;99279.38;6875991;28;20880;-85
2023/09/26 04:32:08;;;;;;;14.73;13.00;;;;;;;16.51;61.78;99287.22;6872495;28;20248;-84
2023/09/26 04:35:29;;;;;;;13.83;12.43;;;;;;;16.51;61.10;99287.22;6877959;28;20288;-86
2023/09/26 04:38:51;;;;;;;12.60;11.27;;;;;;;16.32;60.98;99284.72;6870778;28;20255;-85
2023/09/26 04:42:12;;;;;;;12.40;11.10;;;;;;;16.29;61.19;99258.81;6871432;28;20770;-86
2023/09/26 04:45:34;;;;;;;13.70;11.37;;;;;;;16.47;60.16;99282.47;6876163;28;20343;-85
2023/09/26 04:48:57;;;;;;;11.77;10.63;;;;;;;16.12;60.95;99284.16;6865759;28;20615;-86
2023/09/26 04:52:18;;;;;;;11.90;10.77;;;;;;;15.99;61.27;99297.94;6870722;28;20207;-86
2023/09/26 04:55:40;;;;;;;11.47;10.27;;;;;;;15.79;61.31;99294.59;6871148;28;20321;-85
2023/09/26 04:59:01;;;;;;;11.83;10.20;;;;;;;15.62;61.89;99299.00;6861356;28;20216;-85
2023/09/26 05:02:23;;;;;;;10.87;9.77;;;;;;;15.75;61.55;99299.66;6871659;28;20751;-86
2023/09/26 05:05:46;;;;;;;11.47;10.37;;;;;;;15.64;62.01;99300.41;6876490;28;20631;-85
2023/09/26 05:09:08;;;;;;;10.40;9.30;;;;;;;15.34;61.29;99256.00;6872527;28;20301;-85
2023/09/26 05:12:30;;;;;;;11.47;10.30;;;;;;;15.73;61.07;99306.38;6868972;28;20724;-85
2023/09/26 05:15:51;;;;;;;11.00;9.83;;;;;;;15.96;60.40;99298.38;6874530;28;20396;-85
2023/09/26 05:19:13;;;;;;;11.17;9.90;;;;;;;15.99;60.38;99281.63;6875294;28;20221;-86
2023/09/26 05:22:35;;;;;;;11.33;10.13;;;;;;;16.14;60.05;99288.31;6868701;28;20322;-85
2023/09/26 05:26:04;;;;;;;10.17;9.17;;;;;;;15.81;60.24;99285.16;6868666;28;20312;-85
2023/09/26 05:29:26;;;;;;;11.57;10.40;;;;;;;15.33;61.40;99300.53;6865912;28;20214;-86
2023/09/26 05:32:47;;;;;;;10.53;9.50;;;;;;;15.18;62.26;99245.69;6869781;28;20904;-86
2023/09/26 05:36:09;;;;;;;11.77;9.90;;;;;;;15.76;61.32;99295.06;6875025;28;20315;-86
2023/09/26 05:39:32;;;;;;;10.27;9.13;;;;;;;15.79;61.07;99311.75;6874905;28;20256;-86
2023/09/26 05:42:53;;;;;;;10.00;9.00;;;;;;;15.87;60.58;99311.44;6874109;28;20228;-86
2023/09/26 05:46:15;;;;;;;10.90;9.80;;;;;;;15.64;60.24;99310.47;6879884;28;20214;-85
2023/09/26 05:49:36;;;;;;;11.63;10.07;;;;;;;15.36;61.78;99310.97;6874816;28;20218;-84
2023/09/26 05:52:58;;;;;;;10.03;9.03;;;;;;;15.77;61.25;99310.31;6873383;28;20710;-86
2023/09/26 05:56:20;;;;;;;10.87;9.43;;;;;;;15.46;60.87;99237.06;6874437;28;20270;-86
2023/09/26 05:59:42;;;;;;;10.43;9.33;;;;;;;15.81;60.68;99312.34;6868018;28;20360;-85
2023/09/26 06:03:04;;;;;;;10.10;9.17;;;;;;;15.70;60.66;99272.31;6875427;28;20269;-85
2023/09/26 06:06:26;;;;;;;11.93;9.77;;;;;;;15.50;60.76;99270.88;6876263;28;20241;-85
2023/09/26 06:09:48;;;;;;;11.37;9.37;;;;;;;15.89;60.64;99311.22;6875315;28;20783;-85
2023/09/26 06:13:13;;;;;;;11.97;9.27;;;;;;;16.01;60.66;99307.53;6877600;28;20226;-85
2023/09/26 06:16:35;;;;;;;10.60;9.60;;;;;;;15.76;61.22;99286.91;6872606;28;20602;-85
2023/09/26 06:19:56;;;;;;;11.03;9.27;;;;;;;16.46;61.35;99294.41;6871059;28;20211;-85
2023/09/26 06:23:18;;;;;;;10.97;8.43;;;;;;;16.91;59.22;99298.34;6860985;28;20242;-85
2023/09/26 06:26:39;;;;;;;9.10;8.20;;;;;;;17.47;58.09;99304.13;6871851;28;20291;-84
2023/09/26 06:30:04;;;;;;;10.43;8.47;;;;;;;17.76;57.17;99295.81;6873111;28;20727;-83
2023/09/26 06:33:25;;;;;;;8.73;7.83;;;;;;;17.85;57.23;99315.38;6867322;28;20228;-86
2023/09/26 06:36:51;;;;;;;10.53;9.47;;;;;;;18.11;56.16;99315.66;6875225;28;20276;-84
2023/09/26 06:40:12;;;;;;;10.47;9.47;;;;;;;18.30;54.73;99281.69;6867771;28;20209;-86
2023/09/26 06:43:36;;;;;;;9.07;8.17;;;;;;;18.88;54.31;99315.03;6878689;28;20247;-85
2023/09/26 06:46:58;;;;;;;9.03;8.13;;;;;;;19.31;53.22;99309.84;6878301;28;20247;-85
2023/09/26 06:50:21;;;;;;;9.30;8.10;;;;;;;18.89;54.24;99302.22;6868409;28;20237;-83
2023/09/26 06:53:42;;;;;;;8.33;6.60;;;;;;;19.31;53.20;99287.13;6872955;28;20233;-86
2023/09/26 06:57:04;;;;;;;9.37;7.53;;;;;;;19.54;53.15;99312.41;6881202;28;20775;-86
2023/09/26 07:00:25;;;;;;;7.70;6.93;;;;;;;19.61;53.14;99314.94;6878495;28;20240;-82
2023/09/26 07:03:49;;;;;;;7.13;6.43;;;;;;;20.05;52.14;99322.16;6873928;28;20371;-85
2023/09/26 07:07:10;;;;;;;8.90;7.20;;;;;;;19.54;53.56;99300.59;6871648;28;20571;-85
2023/09/26 07:10:37;;;;;;;7.50;6.80;;;;;;;19.86;52.76;99312.59;6872326;28;20770;-85
2023/09/26 07:13:58;;;;;;;8.10;7.37;;;;;;;20.81;51.62;99311.06;6875677;28;20237;-85
2023/09/26 07:17:20;;;;;;;7.97;6.67;;;;;;;21.00;50.65;99310.47;6875077;28;20212;-84
2023/09/26 07:20:47;;;;;;;8.67;7.87;;;;;;;21.56;48.68;99305.19;6867677;28;20215;-85
2023/09/26 07:24:10;;;;;;;8.13;7.33;;;;;;;21.46;49.77;99290.53;6872595;28;20312;-85
2023/09/26 07:27:31;;;;;;;8.77;7.87;;;;;;;20.45;50.67;99251.50;6871515;28;20300;-85
2023/09/26 07:30:53;;;;;;;8.30;7.50;;;;;;;21.44;50.04;99306.47;6881098;28;20736;-85
2023/09/26 07:34:14;;;;;;;8.50;7.70;;;;;;;21.60;48.10;99276.09;6872929;28;20237;-87
2023/09/26 07:37:38;;;;;;;9.23;8.17;;;;;;;21.72;48.85;99306.16;6890216;28;20293;-85
2023/09/26 07:40:59;;;;;;;7.93;7.13;;;;;;;22.49;47.79;99302.44;6887880;28;20213;-85
2023/09/26 07:44:21;;;;;;;9.00;6.57;;;;;;;22.49;48.38;99285.94;6864083;28;20264;-85
2023/09/26 07:47:43;;;;;;;7.00;6.30;;;;;;;23.23;45.24;99292.72;6861814;28;20300;-85
2023/09/26 07:51:06;;;;;;;6.53;6.00;;;;;;;23.20;45.66;99270.44;6860465;28;20592;-85
2023/09/26 07:54:29;;;;;;;8.60;7.10;;;;;;;23.15;46.61;99289.66;6862046;28;20241;-85
2023/09/26 07:57:50;;;;;;;7.83;7.10;;;;;;;23.85;44.69;99284.13;6884172;28;20290;-85
2023/09/26 08:01:12;;;;;;;7.90;6.63;;;;;;;23.88;44.81;99298.19;6860771;28;20261;-85
2023/09/26 08:04:33;;;;;;;7.07;6.37;;;;;;;23.26;44.99;99233.56;6877053;28;20372;-85
2023/09/26 08:07:55;;;;;;;6.57;5.90;;;;;;;24.26;45.05;99278.22;6868455;28;20210;-85
2023/09/26 08:11:18;;;;;;;6.37;5.30;;;;;;;24.80;43.70;99281.00;6883947;28;20246;-85
2023/09/26 08:14:39;;;;;;;6.63;6.03;;;;;;;24.24;43.84;99265.84;6871835;28;20239;-85
2023/09/26 08:18:01;;;;;;;8.83;6.47;;;;;;;24.56;43.90;99280.84;6879923;28;20305;-85
2023/09/26 08:21:24;;;;;;;6.83;6.23;;;;;;;24.59;43.07;99269.28;6872055;28;20216;-85
2023/09/26 08:24:45;;;;;;;9.03;5.97;;;;;;;24.92;42.88;99267.69;6889495;28;20291;-85
2023/09/26 08:28:08;;;;;;;8.13;5.57;;;;;;;25.43;41.31;99209.03;6903627;28;20638;-85
2023/09/26 08:31:30;;;;;;;7.03;6.10;;;;;;;25.45;41.22;99248.25;6889255;28;20240;-85
2023/09/26 08:34:52;;;;;;;6.03;5.53;;;;;;;25.48;41.42;99277.22;6860546;28;20240;-85
2023/09/26 08:38:13;;;;;;;5.53;4.97;;;;;;;25.27;40.09;99182.72;6875388;28;20338;-85
2023/09/26 08:41:36;;;;;;;7.20;5.30;;;;;;;25.67;40.64;99278.94;6878607;28;20349;-85
2023/09/26 08:44:59;;;;;;;5.73;5.17;;;;;;;26.02;39.61;99277.78;6880604;28;20238;-85
2023/09/26 08:48:21;;;;;;;5.40;4.90;;;;;;;25.18;40.93;99256.16;6884004;28;20261;-85
2023/09/26 08:51:43;;;;;;;5.03;4.63;;;;;;;25.67;41.53;99267.88;6884395;28;20336;-85
2023/09/26 08:55:04;;;;;;;5.57;5.03;;;;;;;25.19;41.36;99257.81;6882505;28;20803;-85
2023/09/26 08:58:27;;;;;;;8.03;4.93;;;;;;;25.34;41.71;99265.16;6878699;28;20317;-85
2023/09/26 09:01:51;;;;;;;5.00;4.60;;;;;;;24.54;43.11;99266.50;6865049;28;20677;-85
2023/09/26 09:05:13;;;;;;;5.70;5.17;;;;;;;24.33;43.64;99270.50;6869757;28;20230;-86
2023/09/26 09:08:35;;;;;;;5.23;4.73;;;;;;;23.31;46.57;99270.13;6886392;28;20213;-85
2023/09/26 09:11:56;;;;;;;6.20;4.67;;;;;;;25.33;42.56;99255.25;6869071;28;20226;-85
2023/09/26 09:15:23;;;;;;;5.80;4.73;;;;;;;25.72;41.66;99248.50;6870190;28;20717;-85
2023/09/26 09:18:50;;;;;;;7.60;4.50;;;;;;;26.05;41.06;99236.56;6880095;28;20347;-85
2023/09/26 09:22:15;;;;;;;4.83;4.30;;;;;;;27.00;39.33;99254.63;6864188;28;20249;-85
2023/09/26 09:25:38;;;;;;;4.63;4.03;;;;;;;25.87;42.19;99250.28;6872924;28;20733;-85
2023/09/26 09:29:16;;;;;;;4.53;3.80;;;;;;;24.79;42.29;99169.84;6881793;28;20216;-86
2023/09/26 09:32:40;;;;;;;6.67;4.47;;;;;;;25.54;42.83;99240.94;6870978;28;20222;-85
2023/09/26 09:36:03;;;;;;;3.97;3.60;;;;;;;25.87;42.49;99251.13;6886331;28;20307;-85
2023/09/26 09:39:25;;;;;;;4.47;3.50;;;;;;;26.84;40.64;99230.25;6883568;28;20213;-85
2023/09/26 09:42:48;;;;;;;4.73;3.70;;;;;;;27.52;38.94;99220.25;6879724;28;20698;-85
2023/09/26 09:46:10;;;;;;;4.20;3.80;;;;;;;25.41;42.63;99218.72;6878690;28;20212;-85
2023/09/26 09:49:32;;;;;;;6.83;3.60;;;;;;;26.22;41.85;99234.13;6875610;28;20201;-86
2023/09/26 09:53:01;;;;;;;3.77;3.40;;;;;;;26.10;40.82;99227.38;6871960;28;20602;-85
2023/09/26 09:56:24;;;;;;;3.67;3.37;;;;;;;26.63;40.38;99228.91;6871941;28;20267;-86
2023/09/26 09:59:46;;;;;;;4.00;3.60;;;;;;;26.75;40.55;99216.28;6872219;28;20696;-85
2023/09/26 10:03:07;;;;;;;3.90;3.47;;;;;;;26.36;40.93;99220.41;6863039;28;20329;-86
2023/09/26 10:06:29;;;;;;;4.60;3.60;;;;;;;27.38;39.82;99224.94;6864264;28;20235;-88
2023/09/26 10:09:54;;;;;;;3.50;3.23;;;;;;;26.72;39.86;99219.63;6860545;28;20292;-86
2023/09/26 10:13:16;;;;;;;5.20;3.50;;;;;;;26.81;39.11;99195.69;6861677;28;20375;-89
2023/09/26 10:16:38;;;;;;;4.43;2.90;;;;;;;27.53;38.06;99147.09;6864551;28;20237;-85
2023/09/26 10:19:59;;;;;;;3.57;2.50;;;;;;;28.24;36.85;99211.91;6883561;28;20296;-86
2023/09/26 10:23:22;;;;;;;3.27;2.80;;;;;;;28.40;35.89;99191.06;6861093;28;20320;-87
2023/09/26 10:26:47;;;;;;;3.83;2.80;;;;;;;27.94;37.42;99207.00;6861385;28;20213;-87
2023/09/26 10:30:10;;;;;;;5.87;3.00;;;;;;;28.09;37.04;99205.84;6862440;28;20205;-87
2023/09/26 10:33:35;;;;;;;4.57;3.47;;;;;;;26.70;37.93;99119.50;6862883;28;20604;-87
2023/09/26 10:36:57;;;;;;;3.93;3.00;;;;;;;27.74;36.92;99182.44;6865878;28;20274;-87
2023/09/26 10:40:18;;;;;;;3.30;3.00;;;;;;;27.94;36.99;99192.28;6867272;28;20276;-87
2023/09/26 10:43:42;;;;;;;4.70;2.90;;;;;;;28.61;35.27;99172.00;6862417;28;20357;-87
2023/09/26 10:47:05;;;;;;;4.57;3.10;;;;;;;28.84;35.10;99182.78;6860375;28;20215;-87
2023/09/26 10:50:26;;;;;;;3.83;2.90;;;;;;;28.82;35.14;99175.91;6861214;28;20308;-87
2023/09/26 10:53:48;;;;;;;3.53;2.97;;;;;;;29.03;35.16;99177.94;6860973;28;20237;-87
2023/09/26 10:57:16;;;;;;;3.77;2.80;;;;;;;29.42;34.03;99149.41;6861416;28;20321;-87
2023/09/26 11:00:49;;;;;;;3.20;2.90;;;;;;;27.20;36.10;99135.25;6862153;28;20199;-87
2023/09/26 11:04:11;;;;;;;3.53;3.20;;;;;;;26.63;37.65;99155.03;6862434;28;20273;-86
2023/09/26 11:07:32;;;;;;;3.70;3.07;;;;;;;28.90;34.39;99175.97;6862487;28;20207;-87
2023/09/26 11:10:54;;;;;;;3.00;2.70;;;;;;;28.03;35.65;99177.44;6861822;28;20213;-87
2023/09/26 11:14:16;;;;;;;4.33;2.77;;;;;;;29.36;33.91;99159.81;6869844;28;20633;-87
2023/09/26 11:17:40;;;;;;;3.37;2.60;;;;;;;29.40;33.04;99149.72;6860843;28;20852;-87
2023/09/26 11:21:01;;;;;;;2.30;2.20;;;;;;;29.69;32.72;99163.94;6861268;28;20250;-86
2023/09/26 11:24:25;;;;;;;2.73;2.40;;;;;;;29.16;33.91;99106.75;6859685;28;20702;-87
2023/09/26 11:27:48;;;;;;;3.37;2.50;;;;;;;29.31;33.15;99154.41;6861721;28;20206;-87
2023/09/26 11:31:09;;;;;;;5.20;2.70;;;;;;;28.91;34.82;99149.84;6860918;28;20587;-87
2023/09/26 11:34:35;;;;;;;2.70;2.47;;;;;;;28.40;34.49;99130.03;6861980;28;20223;-87
2023/09/26 11:37:56;;;;;;;3.30;2.20;;;;;;;28.66;34.04;99131.06;6861691;28;20283;-87
2023/09/26 11:41:20;;;;;;;4.27;2.40;;;;;;;28.79;34.09;99140.47;6860936;28;20276;-85
2023/09/26 11:44:52;;;;;;;2.87;2.47;;;;;;;29.74;32.94;99130.44;6861372;28;20651;-87
2023/09/26 11:48:13;;;;;;;3.23;2.50;;;;;;;30.19;31.89;99133.88;6868458;28;20668;-86
2023/09/26 11:51:36;;;;;;;3.10;2.43;;;;;;;29.98;32.32;99128.06;6861970;28;20729;-86
2023/09/26 11:54:58;;;;;;;3.60;2.40;;;;;;;28.55;33.90;99057.50;6879346;28;20265;-85
2023/09/26 11:58:19;;;;;;;4.80;2.67;;;;;;;29.45;32.87;99107.06;6872105;28;20789;-86
2023/09/26 12:01:42;;;;;;;2.63;2.00;;;;;;;29.64;33.14;99102.09;6870771;28;20240;-85
2023/09/26 12:05:06;;;;;;;2.93;2.27;;;;;;;29.71;32.42;99038.53;6877317;28;20226;-85
2023/09/26 12:08:29;;;;;;;2.40;2.20;;;;;;;28.87;33.24;99065.56;6882444;28;20215;-85
2023/09/26 12:11:52;;;;;;;2.33;2.07;;;;;;;29.96;31.81;99124.78;6870432;28;20298;-84
2023/09/26 12:15:22;;;;;;;3.23;2.20;;;;;;;30.68;30.73;99123.13;6878532;28;20239;-85
2023/09/26 12:18:43;;;;;;;2.60;2.40;;;;;;;30.36;31.25;99100.50;6882508;28;20289;-85
2023/09/26 12:22:05;;;;;;;2.50;2.20;;;;;;;29.71;32.09;99096.91;6876756;28;20663;-85
2023/09/26 12:25:28;;;;;;;2.50;2.30;;;;;;;29.86;31.75;99105.63;6880409;28;20713;-85
2023/09/26 12:28:50;;;;;;;2.60;2.40;;;;;;;28.86;33.25;99105.59;6867043;28;20210;-85
2023/09/26 12:32:11;;;;;;;3.23;2.30;;;;;;;29.49;32.41;99110.84;6876047;28;20226;-85
2023/09/26 12:35:33;;;;;;;2.90;2.23;;;;;;;30.82;30.14;99100.66;6865734;28;20329;-85
2023/09/26 12:38:55;;;;;;;2.87;2.20;;;;;;;30.88;29.87;99089.03;6885543;28;20223;-87
2023/09/26 12:42:18;;;;;;;3.90;2.50;;;;;;;29.83;31.61;99103.47;6876893;28;20722;-87
2023/09/26 12:45:39;;;;;;;2.20;2.00;;;;;;;29.19;31.94;99098.59;6875125;28;20731;-88
2023/09/26 12:49:01;;;;;;;2.27;2.10;;;;;;;29.58;31.69;99089.50;6884417;28;20302;-87
2023/09/26 12:52:26;;;;;;;2.63;1.60;;;;;;;30.09;31.03;99087.72;6875985;28;20227;-87
2023/09/26 12:55:48;;;;;;;2.30;2.10;;;;;;;29.97;31.23;99081.09;6877073;28;20316;-87
2023/09/26 12:59:11;;;;;;;2.03;1.93;;;;;;;29.41;31.71;99067.16;6878284;28;20306;-84
2023/09/26 13:02:32;;;;;;;2.20;1.90;;;;;;;30.41;30.38;99086.41;6874315;28;20317;-87
2023/09/26 13:05:54;;;;;;;4.43;1.90;;;;;;;30.13;30.30;99076.75;6884405;28;20215;-86
2023/09/26 13:09:15;;;;;;;3.53;2.23;;;;;;;30.35;29.90;99068.22;6884427;28;20721;-87
2023/09/26 13:12:38;;;;;;;1.83;1.73;;;;;;;29.66;31.14;99070.06;6875315;28;20263;-87
2023/09/26 13:16:01;;;;;;;3.83;2.10;;;;;;;28.52;31.99;99002.66;6878777;28;20234;-86
2023/09/26 13:19:24;;;;;;;3.03;2.23;;;;;;;30.00;30.78;99053.47;6880770;28;20227;-86
2023/09/26 13:22:46;;;;;;;3.17;1.90;;;;;;;30.10;29.78;99069.88;6883816;28;20231;-86
2023/09/26 13:26:07;;;;;;;2.90;1.90;;;;;;;30.03;29.91;99046.44;6875806;28;20294;-86
2023/09/26 13:29:29;;;;;;;2.10;1.93;;;;;;;29.78;29.37;98995.19;6875880;28;20223;-86
2023/09/26 13:32:52;;;;;;;2.10;1.87;;;;;;;30.62;29.25;99060.38;6887176;28;20223;-86
2023/09/26 13:36:14;;;;;;;1.80;1.70;;;;;;;30.12;29.36;98995.25;6891821;28;20232;-86
2023/09/26 13:39:35;;;;;;;2.27;1.80;;;;;;;30.35;29.69;99060.72;6894955;28;20211;-87
2023/09/26 13:42:57;;;;;;;1.77;1.50;;;;;;;30.36;28.25;99051.22;6871677;28;20232;-87
2023/09/26 13:46:19;;;;;;;2.07;1.70;;;;;;;30.95;27.68;99060.69;6880584;28;20226;-85
2023/09/26 13:49:42;;;;;;;1.50;1.40;;;;;;;30.61;27.62;99028.09;6873124;28;20216;-87
2023/09/26 13:53:03;;;;;;;3.03;1.90;;;;;;;30.28;28.84;99054.81;6877259;28;20793;-87
2023/09/26 13:56:25;;;;;;;1.90;1.80;;;;;;;29.25;29.40;99036.22;6872394;28;20240;-86
2023/09/26 13:59:47;;;;;;;2.70;1.50;;;;;;;30.11;27.54;98998.34;6874898;28;20243;-87
2023/09/26 14:03:08;;;;;;;3.23;1.60;;;;;;;30.56;27.25;99000.47;6882713;28;20239;-87
2023/09/26 14:06:31;;;;;;;4.10;1.63;;;;;;;30.28;28.02;99032.56;6882336;28;20226;-88
2023/09/26 14:09:53;;;;;;;2.90;1.57;;;;;;;30.75;27.34;99028.78;6875963;28;20223;-87
2023/09/26 14:13:14;;;;;;;1.70;1.60;;;;;;;30.74;28.61;99055.00;6876113;28;20374;-87
2023/09/26 14:16:36;;;;;;;1.90;1.70;;;;;;;30.58;28.89;99050.22;6872830;28;20676;-87
2023/09/26 14:19:58;;;;;;;3.10;1.73;;;;;;;30.42;29.30;99049.09;6877959;28;20224;-87
2023/09/26 14:23:23;;;;;;;2.67;1.90;;;;;;;29.51;29.75;99052.97;6869911;28;20232;-87
2023/09/26 14:26:45;;;;;;;2.00;1.80;;;;;;;29.29;30.24;99028.88;6882101;28;20214;-87
2023/09/26 14:30:08;;;;;;;3.17;1.80;;;;;;;29.94;29.92;99040.03;6876461;28;20215;-87
2023/09/26 14:33:30;;;;;;;1.80;1.70;;;;;;;29.75;30.02;99045.06;6868836;28;20267;-87
2023/09/26 14:36:51;;;;;;;1.60;1.50;;;;;;;30.14;29.59;99045.00;6873601;28;20306;-86
2023/09/26 14:40:14;;;;;;;2.50;2.00;;;;;;;30.29;28.69;99028.63;6873596;28;20215;-87
2023/09/26 14:43:36;;;;;;;2.20;2.00;;;;;;;30.41;28.17;99014.88;6871729;28;20682;-87
2023/09/26 14:46:58;;;;;;;2.10;1.90;;;;;;;30.77;28.23;99036.81;6881274;28;20217;-87
2023/09/26 14:50:20;;;;;;;1.67;1.57;;;;;;;29.75;29.57;98978.34;6877840;28;20361;-87
2023/09/26 14:53:41;;;;;;;2.63;1.73;;;;;;;30.08;29.05;99040.72;6871752;28;20825;-87
2023/09/26 14:57:05;;;;;;;2.83;2.00;;;;;;;29.58;31.01;99037.50;6875863;28;20375;-87
2023/09/26 15:00:26;;;;;;;2.90;1.80;;;;;;;29.98;31.26;99047.41;6871739;28;20636;-88
2023/09/26 15:03:48;;;;;;;1.80;1.70;;;;;;;29.28;32.28;99055.03;6878004;28;20405;-87
2023/09/26 15:07:09;;;;;;;2.40;2.20;;;;;;;29.89;31.22;99054.09;6863374;28;20694;-87
2023/09/26 15:10:31;;;;;;;11.17;4.70;;;;;;;30.04;30.89;99051.69;6869905;28;20271;-86
2023/09/26 15:13:54;;;;;;;2.50;2.07;;;;;;;29.56;31.46;99039.81;6865293;28;20266;-87
2023/09/26 15:17:15;;;;;;;6.03;3.03;;;;;;;29.86;31.02;99049.19;6876145;28;20273;-86
2023/09/26 15:20:37;;;;;;;3.63;2.30;;;;;;;29.15;31.26;99053.19;6878502;28;20305;-85
2023/09/26 15:23:58;;;;;;;2.00;1.90;;;;;;;28.93;31.29;98989.34;6870953;28;20321;-84
2023/09/26 15:27:20;;;;;;;2.20;1.97;;;;;;;28.81;30.80;98961.38;6880097;28;20370;-84
2023/09/26 15:30:44;;;;;;;2.90;2.07;;;;;;;29.44;31.07;99053.47;6875460;28;20297;-85
2023/09/26 15:34:05;;;;;;;1.73;1.63;;;;;;;29.80;30.26;99045.75;6877154;28;20362;-84
2023/09/26 15:37:27;;;;;;;2.80;1.90;;;;;;;30.05;29.75;99053.31;6872758;28;20234;-85
2023/09/26 15:40:48;;;;;;;1.80;1.70;;;;;;;30.34;30.06;99047.94;6878994;28;20213;-84
2023/09/26 15:44:10;;;;;;;2.37;1.87;;;;;;;29.68;31.31;99044.72;6862396;28;20234;-84
2023/09/26 15:47:36;;;;;;;3.00;2.20;;;;;;;29.07;33.01;99023.41;6863606;28;20222;-85
2023/09/26 15:50:58;;;;;;;2.87;2.37;;;;;;;29.33;32.14;99034.63;6862911;28;20685;-84